sensor_id;sensor_type;location;lat;lon;timestamp;P1;durP1;ratioP1;P2;durP2;ratioP2
16159;SDS011;8185;57.818;15.224;2023-03-23T00:01:27;11.70;;;6.30;;
16159;SDS011;8185;57.818;15.224;2023-03-23T00:03:57;10.30;;;3.00;;
16159;SDS011;8185;57.818;15.224;2023-03-23T00:06:26;15.10;;;7.53;;
16159;SDS011;8185;57.818;15.224;2023-03-23T00:09:00;10.83;;;3.47;;
16159;SDS011;8185;57.818;15.224;2023-03-23T00:11:31;15.83;;;3.03;;
16159;SDS011;8185;57.818;15.224;2023-03-23T00:13:59;9.80;;;3.83;;
16159;SDS011;8185;57.818;15.224;2023-03-23T00:16:28;12.33;;;3.20;;
16159;SDS011;8185;57.818;15.224;2023-03-23T00:18:57;17.63;;;8.13;;
16159;SDS011;8185;57.818;15.224;2023-03-23T00:21:27;11.67;;;5.13;;
16159;SDS011;8185;57.818;15.224;2023-03-23T00:24:00;9.93;;;2.70;;
16159;SDS011;8185;57.818;15.224;2023-03-23T00:26:28;15.03;;;4.93;;
16159;SDS011;8185;57.818;15.224;2023-03-23T00:28:59;15.43;;;4.87;;
16159;SDS011;8185;57.818;15.224;2023-03-23T00:31:27;13.07;;;2.40;;
16159;SDS011;8185;57.818;15.224;2023-03-23T00:33:58;15.17;;;4.60;;
16159;SDS011;8185;57.818;15.224;2023-03-23T00:36:29;11.20;;;3.23;;
16159;SDS011;8185;57.818;15.224;2023-03-23T00:38:58;9.57;;;2.87;;
16159;SDS011;8185;57.818;15.224;2023-03-23T00:41:26;17.57;;;5.43;;
16159;SDS011;8185;57.818;15.224;2023-03-23T00:43:55;12.27;;;3.27;;
16159;SDS011;8185;57.818;15.224;2023-03-23T00:46:26;9.07;;;4.17;;
16159;SDS011;8185;57.818;15.224;2023-03-23T00:48:53;13.90;;;3.70;;
16159;SDS011;8185;57.818;15.224;2023-03-23T00:51:22;9.43;;;2.40;;
16159;SDS011;8185;57.818;15.224;2023-03-23T00:53:50;17.07;;;2.40;;
16159;SDS011;8185;57.818;15.224;2023-03-23T00:56:18;10.67;;;3.77;;
16159;SDS011;8185;57.818;15.224;2023-03-23T00:58:45;13.20;;;4.80;;
16159;SDS011;8185;57.818;15.224;2023-03-23T01:01:13;11.03;;;4.40;;
16159;SDS011;8185;57.818;15.224;2023-03-23T01:03:40;8.33;;;2.47;;
16159;SDS011;8185;57.818;15.224;2023-03-23T01:06:09;14.40;;;5.60;;
16159;SDS011;8185;57.818;15.224;2023-03-23T01:08:39;8.97;;;2.50;;
16159;SDS011;8185;57.818;15.224;2023-03-23T01:11:11;15.13;;;4.90;;
16159;SDS011;8185;57.818;15.224;2023-03-23T01:13:40;11.27;;;2.63;;
16159;SDS011;8185;57.818;15.224;2023-03-23T01:16:08;15.93;;;3.03;;
16159;SDS011;8185;57.818;15.224;2023-03-23T01:18:37;12.87;;;2.70;;
16159;SDS011;8185;57.818;15.224;2023-03-23T01:21:05;13.43;;;2.83;;
16159;SDS011;8185;57.818;15.224;2023-03-23T01:23:33;15.90;;;2.93;;
16159;SDS011;8185;57.818;15.224;2023-03-23T01:26:04;13.93;;;4.50;;
16159;SDS011;8185;57.818;15.224;2023-03-23T01:28:32;9.33;;;2.73;;
16159;SDS011;8185;57.818;15.224;2023-03-23T01:31:00;9.50;;;2.97;;
16159;SDS011;8185;57.818;15.224;2023-03-23T01:33:29;12.67;;;2.83;;
16159;SDS011;8185;57.818;15.224;2023-03-23T01:35:58;16.30;;;5.97;;
16159;SDS011;8185;57.818;15.224;2023-03-23T01:38:29;11.27;;;4.47;;
16159;SDS011;8185;57.818;15.224;2023-03-23T01:40:56;18.60;;;5.17;;
16159;SDS011;8185;57.818;15.224;2023-03-23T01:43:23;14.03;;;4.10;;
16159;SDS011;8185;57.818;15.224;2023-03-23T01:45:50;15.43;;;4.63;;
16159;SDS011;8185;57.818;15.224;2023-03-23T01:48:18;11.13;;;2.30;;
16159;SDS011;8185;57.818;15.224;2023-03-23T01:50:52;16.73;;;3.27;;
16159;SDS011;8185;57.818;15.224;2023-03-23T01:53:24;14.73;;;3.40;;
16159;SDS011;8185;57.818;15.224;2023-03-23T01:55:55;11.20;;;2.20;;
16159;SDS011;8185;57.818;15.224;2023-03-23T01:58:26;21.10;;;3.50;;
16159;SDS011;8185;57.818;15.224;2023-03-23T02:00:57;21.30;;;5.03;;
16159;SDS011;8185;57.818;15.224;2023-03-23T02:03:27;20.23;;;10.03;;
16159;SDS011;8185;57.818;15.224;2023-03-23T02:05:57;17.67;;;9.03;;
16159;SDS011;8185;57.818;15.224;2023-03-23T02:08:26;22.30;;;8.43;;
16159;SDS011;8185;57.818;15.224;2023-03-23T02:10:55;15.77;;;4.37;;
16159;SDS011;8185;57.818;15.224;2023-03-23T02:13:22;17.73;;;11.80;;
16159;SDS011;8185;57.818;15.224;2023-03-23T02:15:52;19.73;;;5.07;;
16159;SDS011;8185;57.818;15.224;2023-03-23T02:18:31;18.60;;;7.27;;
16159;SDS011;8185;57.818;15.224;2023-03-23T02:27:29;17.33;;;5.30;;
16159;SDS011;8185;57.818;15.224;2023-03-23T02:30:26;13.53;;;5.20;;
16159;SDS011;8185;57.818;15.224;2023-03-23T02:36:00;18.27;;;11.30;;
16159;SDS011;8185;57.818;15.224;2023-03-23T02:38:32;17.80;;;4.70;;
16159;SDS011;8185;57.818;15.224;2023-03-23T02:41:02;17.83;;;4.07;;
16159;SDS011;8185;57.818;15.224;2023-03-23T02:43:31;17.57;;;9.13;;
16159;SDS011;8185;57.818;15.224;2023-03-23T02:46:04;18.83;;;6.40;;
16159;SDS011;8185;57.818;15.224;2023-03-23T02:48:35;18.73;;;5.23;;
16159;SDS011;8185;57.818;15.224;2023-03-23T02:51:05;23.47;;;11.77;;
16159;SDS011;8185;57.818;15.224;2023-03-23T02:53:34;20.27;;;5.00;;
16159;SDS011;8185;57.818;15.224;2023-03-23T02:56:06;15.60;;;4.27;;
16159;SDS011;8185;57.818;15.224;2023-03-23T02:58:36;14.13;;;3.87;;
16159;SDS011;8185;57.818;15.224;2023-03-23T03:04:18;16.73;;;4.70;;
16159;SDS011;8185;57.818;15.224;2023-03-23T03:06:50;17.90;;;4.40;;
16159;SDS011;8185;57.818;15.224;2023-03-23T03:09:40;15.17;;;4.10;;
16159;SDS011;8185;57.818;15.224;2023-03-23T03:12:13;16.13;;;5.57;;
16159;SDS011;8185;57.818;15.224;2023-03-23T03:14:48;18.77;;;4.17;;
16159;SDS011;8185;57.818;15.224;2023-03-23T03:17:23;16.53;;;4.90;;
16159;SDS011;8185;57.818;15.224;2023-03-23T03:19:54;13.03;;;3.63;;
16159;SDS011;8185;57.818;15.224;2023-03-23T03:22:25;16.77;;;4.23;;
16159;SDS011;8185;57.818;15.224;2023-03-23T03:24:55;13.47;;;4.43;;
16159;SDS011;8185;57.818;15.224;2023-03-23T03:27:24;14.93;;;3.83;;
16159;SDS011;8185;57.818;15.224;2023-03-23T03:29:54;17.37;;;5.40;;
16159;SDS011;8185;57.818;15.224;2023-03-23T03:32:25;15.03;;;4.57;;
16159;SDS011;8185;57.818;15.224;2023-03-23T03:35:01;17.53;;;4.57;;
16159;SDS011;8185;57.818;15.224;2023-03-23T03:37:32;15.30;;;4.10;;
16159;SDS011;8185;57.818;15.224;2023-03-23T03:40:02;19.27;;;5.03;;
16159;SDS011;8185;57.818;15.224;2023-03-23T03:42:36;16.27;;;5.10;;
16159;SDS011;8185;57.818;15.224;2023-03-23T03:45:04;17.53;;;4.30;;
16159;SDS011;8185;57.818;15.224;2023-03-23T03:47:32;20.77;;;4.73;;
16159;SDS011;8185;57.818;15.224;2023-03-23T03:50:01;18.97;;;5.10;;
16159;SDS011;8185;57.818;15.224;2023-03-23T03:52:28;22.80;;;7.70;;
16159;SDS011;8185;57.818;15.224;2023-03-23T03:54:55;21.07;;;9.17;;
16159;SDS011;8185;57.818;15.224;2023-03-23T03:57:22;24.10;;;10.97;;
16159;SDS011;8185;57.818;15.224;2023-03-23T03:59:50;17.07;;;7.63;;
16159;SDS011;8185;57.818;15.224;2023-03-23T04:02:17;22.33;;;8.63;;
16159;SDS011;8185;57.818;15.224;2023-03-23T04:04:46;16.00;;;4.23;;
16159;SDS011;8185;57.818;15.224;2023-03-23T04:07:15;16.20;;;4.30;;
16159;SDS011;8185;57.818;15.224;2023-03-23T04:09:42;15.90;;;6.37;;
16159;SDS011;8185;57.818;15.224;2023-03-23T04:12:11;16.73;;;6.53;;
16159;SDS011;8185;57.818;15.224;2023-03-23T04:14:39;29.37;;;13.80;;
16159;SDS011;8185;57.818;15.224;2023-03-23T04:17:06;22.13;;;8.13;;
16159;SDS011;8185;57.818;15.224;2023-03-23T04:19:34;10.27;;;4.20;;
16159;SDS011;8185;57.818;15.224;2023-03-23T04:22:02;15.07;;;5.70;;
16159;SDS011;8185;57.818;15.224;2023-03-23T04:24:31;18.77;;;8.40;;
16159;SDS011;8185;57.818;15.224;2023-03-23T04:27:00;12.93;;;4.87;;
16159;SDS011;8185;57.818;15.224;2023-03-23T04:29:28;16.83;;;8.03;;
16159;SDS011;8185;57.818;15.224;2023-03-23T04:31:55;13.50;;;5.00;;
16159;SDS011;8185;57.818;15.224;2023-03-23T04:34:23;12.70;;;3.33;;
16159;SDS011;8185;57.818;15.224;2023-03-23T04:36:50;10.93;;;3.50;;
16159;SDS011;8185;57.818;15.224;2023-03-23T04:39:18;8.73;;;3.90;;
16159;SDS011;8185;57.818;15.224;2023-03-23T04:41:47;11.80;;;4.83;;
16159;SDS011;8185;57.818;15.224;2023-03-23T04:44:14;10.07;;;5.97;;
16159;SDS011;8185;57.818;15.224;2023-03-23T04:46:42;17.20;;;3.80;;
16159;SDS011;8185;57.818;15.224;2023-03-23T04:49:15;9.30;;;4.20;;
16159;SDS011;8185;57.818;15.224;2023-03-23T04:51:47;22.57;;;12.57;;
16159;SDS011;8185;57.818;15.224;2023-03-23T04:54:15;16.73;;;7.20;;
16159;SDS011;8185;57.818;15.224;2023-03-23T04:56:43;21.33;;;5.53;;
16159;SDS011;8185;57.818;15.224;2023-03-23T04:59:12;12.60;;;6.10;;
16159;SDS011;8185;57.818;15.224;2023-03-23T05:01:40;11.87;;;2.83;;
16159;SDS011;8185;57.818;15.224;2023-03-23T05:04:11;8.13;;;3.23;;
16159;SDS011;8185;57.818;15.224;2023-03-23T05:06:42;13.10;;;3.50;;
16159;SDS011;8185;57.818;15.224;2023-03-23T05:09:10;12.33;;;2.97;;
16159;SDS011;8185;57.818;15.224;2023-03-23T05:11:38;14.33;;;7.13;;
16159;SDS011;8185;57.818;15.224;2023-03-23T05:14:05;11.47;;;3.00;;
16159;SDS011;8185;57.818;15.224;2023-03-23T05:16:34;8.23;;;3.27;;
16159;SDS011;8185;57.818;15.224;2023-03-23T05:19:02;9.60;;;4.07;;
16159;SDS011;8185;57.818;15.224;2023-03-23T05:21:31;14.53;;;3.23;;
16159;SDS011;8185;57.818;15.224;2023-03-23T05:23:59;9.77;;;2.90;;
16159;SDS011;8185;57.818;15.224;2023-03-23T05:26:27;13.63;;;4.83;;
16159;SDS011;8185;57.818;15.224;2023-03-23T05:28:55;11.73;;;4.00;;
16159;SDS011;8185;57.818;15.224;2023-03-23T05:31:22;9.90;;;3.77;;
16159;SDS011;8185;57.818;15.224;2023-03-23T05:33:51;11.77;;;3.93;;
16159;SDS011;8185;57.818;15.224;2023-03-23T05:36:19;10.40;;;2.43;;
16159;SDS011;8185;57.818;15.224;2023-03-23T05:38:48;15.50;;;3.33;;
16159;SDS011;8185;57.818;15.224;2023-03-23T05:41:17;7.33;;;2.23;;
16159;SDS011;8185;57.818;15.224;2023-03-23T05:43:44;9.33;;;2.60;;
16159;SDS011;8185;57.818;15.224;2023-03-23T05:46:11;11.43;;;2.50;;
16159;SDS011;8185;57.818;15.224;2023-03-23T05:48:38;15.77;;;3.37;;
16159;SDS011;8185;57.818;15.224;2023-03-23T05:51:07;9.33;;;2.83;;
16159;SDS011;8185;57.818;15.224;2023-03-23T05:53:35;11.13;;;3.37;;
16159;SDS011;8185;57.818;15.224;2023-03-23T05:56:02;11.63;;;3.13;;
16159;SDS011;8185;57.818;15.224;2023-03-23T05:58:31;13.23;;;4.10;;
16159;SDS011;8185;57.818;15.224;2023-03-23T06:00:59;6.07;;;2.60;;
16159;SDS011;8185;57.818;15.224;2023-03-23T06:03:26;6.77;;;2.97;;
16159;SDS011;8185;57.818;15.224;2023-03-23T06:05:53;7.00;;;2.90;;
16159;SDS011;8185;57.818;15.224;2023-03-23T06:08:22;9.87;;;3.10;;
16159;SDS011;8185;57.818;15.224;2023-03-23T06:10:49;12.47;;;5.57;;
16159;SDS011;8185;57.818;15.224;2023-03-23T06:13:16;11.67;;;3.30;;
16159;SDS011;8185;57.818;15.224;2023-03-23T06:15:43;18.10;;;4.10;;
16159;SDS011;8185;57.818;15.224;2023-03-23T06:18:10;16.77;;;3.87;;
16159;SDS011;8185;57.818;15.224;2023-03-23T06:20:38;6.50;;;2.97;;
16159;SDS011;8185;57.818;15.224;2023-03-23T06:23:05;11.03;;;3.30;;
16159;SDS011;8185;57.818;15.224;2023-03-23T06:25:35;5.77;;;2.63;;
16159;SDS011;8185;57.818;15.224;2023-03-23T06:28:02;7.40;;;3.40;;
16159;SDS011;8185;57.818;15.224;2023-03-23T06:30:30;11.03;;;4.13;;
16159;SDS011;8185;57.818;15.224;2023-03-23T06:32:57;7.83;;;2.83;;
16159;SDS011;8185;57.818;15.224;2023-03-23T06:35:24;10.63;;;6.50;;
16159;SDS011;8185;57.818;15.224;2023-03-23T06:37:51;9.67;;;4.00;;
16159;SDS011;8185;57.818;15.224;2023-03-23T06:40:19;13.90;;;4.30;;
16159;SDS011;8185;57.818;15.224;2023-03-23T06:42:48;11.43;;;3.50;;
16159;SDS011;8185;57.818;15.224;2023-03-23T06:45:15;12.80;;;3.43;;
16159;SDS011;8185;57.818;15.224;2023-03-23T06:47:45;7.80;;;3.00;;
16159;SDS011;8185;57.818;15.224;2023-03-23T06:50:13;7.83;;;3.50;;
16159;SDS011;8185;57.818;15.224;2023-03-23T06:52:44;12.00;;;7.03;;
16159;SDS011;8185;57.818;15.224;2023-03-23T06:55:12;10.80;;;4.67;;
16159;SDS011;8185;57.818;15.224;2023-03-23T06:57:39;8.43;;;2.97;;
16159;SDS011;8185;57.818;15.224;2023-03-23T07:00:09;11.87;;;4.17;;
16159;SDS011;8185;57.818;15.224;2023-03-23T07:02:39;9.33;;;2.90;;
16159;SDS011;8185;57.818;15.224;2023-03-23T07:05:07;11.93;;;4.27;;
16159;SDS011;8185;57.818;15.224;2023-03-23T07:07:35;7.40;;;3.33;;
16159;SDS011;8185;57.818;15.224;2023-03-23T07:10:03;9.73;;;4.00;;
16159;SDS011;8185;57.818;15.224;2023-03-23T07:12:31;10.13;;;3.33;;
16159;SDS011;8185;57.818;15.224;2023-03-23T07:14:58;6.37;;;2.80;;
16159;SDS011;8185;57.818;15.224;2023-03-23T07:17:27;6.83;;;2.67;;
16159;SDS011;8185;57.818;15.224;2023-03-23T07:19:54;13.10;;;6.30;;
16159;SDS011;8185;57.818;15.224;2023-03-23T07:22:21;9.03;;;2.70;;
16159;SDS011;8185;57.818;15.224;2023-03-23T07:24:49;6.87;;;3.23;;
16159;SDS011;8185;57.818;15.224;2023-03-23T07:27:16;10.13;;;2.97;;
16159;SDS011;8185;57.818;15.224;2023-03-23T07:29:44;5.60;;;2.30;;
16159;SDS011;8185;57.818;15.224;2023-03-23T07:32:11;5.67;;;2.37;;
16159;SDS011;8185;57.818;15.224;2023-03-23T07:34:40;9.17;;;5.23;;
16159;SDS011;8185;57.818;15.224;2023-03-23T07:37:07;6.23;;;3.80;;
16159;SDS011;8185;57.818;15.224;2023-03-23T07:39:35;6.50;;;2.27;;
16159;SDS011;8185;57.818;15.224;2023-03-23T07:42:02;3.47;;;2.20;;
16159;SDS011;8185;57.818;15.224;2023-03-23T07:44:32;5.83;;;2.27;;
16159;SDS011;8185;57.818;15.224;2023-03-23T07:47:00;11.00;;;3.57;;
16159;SDS011;8185;57.818;15.224;2023-03-23T07:49:28;9.53;;;3.43;;
16159;SDS011;8185;57.818;15.224;2023-03-23T07:51:57;5.63;;;1.87;;
16159;SDS011;8185;57.818;15.224;2023-03-23T07:54:27;8.43;;;2.57;;
16159;SDS011;8185;57.818;15.224;2023-03-23T07:56:54;6.10;;;1.80;;
16159;SDS011;8185;57.818;15.224;2023-03-23T07:59:22;3.97;;;1.73;;
16159;SDS011;8185;57.818;15.224;2023-03-23T08:01:49;3.50;;;1.80;;
16159;SDS011;8185;57.818;15.224;2023-03-23T08:04:16;7.50;;;2.23;;
16159;SDS011;8185;57.818;15.224;2023-03-23T08:06:43;6.90;;;2.10;;
16159;SDS011;8185;57.818;15.224;2023-03-23T08:09:12;6.07;;;2.03;;
16159;SDS011;8185;57.818;15.224;2023-03-23T08:11:39;6.43;;;2.50;;
16159;SDS011;8185;57.818;15.224;2023-03-23T08:14:06;3.63;;;1.40;;
16159;SDS011;8185;57.818;15.224;2023-03-23T08:16:34;7.30;;;2.07;;
16159;SDS011;8185;57.818;15.224;2023-03-23T08:19:01;6.90;;;2.07;;
16159;SDS011;8185;57.818;15.224;2023-03-23T08:21:30;6.77;;;1.80;;
16159;SDS011;8185;57.818;15.224;2023-03-23T08:23:58;7.07;;;2.83;;
16159;SDS011;8185;57.818;15.224;2023-03-23T08:26:27;5.03;;;1.90;;
16159;SDS011;8185;57.818;15.224;2023-03-23T08:28:55;4.67;;;1.80;;
16159;SDS011;8185;57.818;15.224;2023-03-23T08:31:22;6.57;;;2.50;;
16159;SDS011;8185;57.818;15.224;2023-03-23T08:33:50;7.53;;;1.93;;
16159;SDS011;8185;57.818;15.224;2023-03-23T08:36:18;3.50;;;1.57;;
16159;SDS011;8185;57.818;15.224;2023-03-23T08:38:46;4.73;;;1.77;;
16159;SDS011;8185;57.818;15.224;2023-03-23T08:41:13;4.27;;;1.50;;
16159;SDS011;8185;57.818;15.224;2023-03-23T08:43:42;3.63;;;1.43;;
16159;SDS011;8185;57.818;15.224;2023-03-23T08:46:09;9.73;;;2.40;;
16159;SDS011;8185;57.818;15.224;2023-03-23T08:48:37;5.30;;;2.17;;
16159;SDS011;8185;57.818;15.224;2023-03-23T08:51:05;3.73;;;1.20;;
16159;SDS011;8185;57.818;15.224;2023-03-23T08:53:34;5.50;;;1.97;;
16159;SDS011;8185;57.818;15.224;2023-03-23T08:56:02;6.13;;;2.20;;
16159;SDS011;8185;57.818;15.224;2023-03-23T08:58:30;6.83;;;1.67;;
16159;SDS011;8185;57.818;15.224;2023-03-23T09:01:00;3.13;;;1.53;;
16159;SDS011;8185;57.818;15.224;2023-03-23T09:03:27;4.70;;;1.50;;
16159;SDS011;8185;57.818;15.224;2023-03-23T09:05:58;6.67;;;1.63;;
16159;SDS011;8185;57.818;15.224;2023-03-23T09:08:26;2.57;;;1.53;;
16159;SDS011;8185;57.818;15.224;2023-03-23T09:10:55;4.37;;;1.47;;
16159;SDS011;8185;57.818;15.224;2023-03-23T09:13:24;3.90;;;1.70;;
16159;SDS011;8185;57.818;15.224;2023-03-23T09:15:52;3.27;;;1.50;;
16159;SDS011;8185;57.818;15.224;2023-03-23T09:18:20;5.70;;;1.70;;
16159;SDS011;8185;57.818;15.224;2023-03-23T09:20:49;4.43;;;1.97;;
16159;SDS011;8185;57.818;15.224;2023-03-23T09:23:16;4.53;;;1.60;;
16159;SDS011;8185;57.818;15.224;2023-03-23T09:25:43;4.47;;;1.70;;
16159;SDS011;8185;57.818;15.224;2023-03-23T09:28:11;4.87;;;1.37;;
16159;SDS011;8185;57.818;15.224;2023-03-23T09:30:39;7.60;;;2.30;;
16159;SDS011;8185;57.818;15.224;2023-03-23T09:33:08;2.93;;;1.40;;
16159;SDS011;8185;57.818;15.224;2023-03-23T09:35:36;4.77;;;1.40;;
16159;SDS011;8185;57.818;15.224;2023-03-23T09:38:07;4.70;;;1.93;;
16159;SDS011;8185;57.818;15.224;2023-03-23T09:40:38;5.93;;;1.70;;
16159;SDS011;8185;57.818;15.224;2023-03-23T09:43:18;5.63;;;4.00;;
16159;SDS011;8185;57.818;15.224;2023-03-23T09:46:16;6.83;;;2.00;;
16159;SDS011;8185;57.818;15.224;2023-03-23T09:48:54;5.63;;;1.70;;
16159;SDS011;8185;57.818;15.224;2023-03-23T09:51:34;6.53;;;1.97;;
16159;SDS011;8185;57.818;15.224;2023-03-23T09:54:10;5.23;;;1.63;;
16159;SDS011;8185;57.818;15.224;2023-03-23T09:56:44;7.00;;;2.07;;
16159;SDS011;8185;57.818;15.224;2023-03-23T09:59:14;7.13;;;1.90;;
16159;SDS011;8185;57.818;15.224;2023-03-23T10:01:47;5.47;;;1.47;;
16159;SDS011;8185;57.818;15.224;2023-03-23T10:04:21;5.63;;;1.50;;
16159;SDS011;8185;57.818;15.224;2023-03-23T10:06:58;6.00;;;1.57;;
16159;SDS011;8185;57.818;15.224;2023-03-23T10:09:28;2.83;;;1.93;;
16159;SDS011;8185;57.818;15.224;2023-03-23T10:11:59;4.37;;;1.30;;
16159;SDS011;8185;57.818;15.224;2023-03-23T10:14:37;10.80;;;2.23;;
16159;SDS011;8185;57.818;15.224;2023-03-23T10:17:25;4.47;;;1.50;;
16159;SDS011;8185;57.818;15.224;2023-03-23T10:19:55;6.30;;;1.33;;
16159;SDS011;8185;57.818;15.224;2023-03-23T10:22:36;5.13;;;1.60;;
16159;SDS011;8185;57.818;15.224;2023-03-23T10:25:14;6.53;;;1.50;;
16159;SDS011;8185;57.818;15.224;2023-03-23T10:27:44;8.90;;;1.80;;
16159;SDS011;8185;57.818;15.224;2023-03-23T10:30:17;7.53;;;1.70;;
16159;SDS011;8185;57.818;15.224;2023-03-23T10:32:50;5.13;;;1.40;;
16159;SDS011;8185;57.818;15.224;2023-03-23T10:35:22;3.37;;;1.40;;
16159;SDS011;8185;57.818;15.224;2023-03-23T10:37:59;2.67;;;1.43;;
16159;SDS011;8185;57.818;15.224;2023-03-23T10:40:28;4.30;;;1.43;;
16159;SDS011;8185;57.818;15.224;2023-03-23T10:43:00;4.70;;;1.10;;
16159;SDS011;8185;57.818;15.224;2023-03-23T10:45:28;3.03;;;1.13;;
16159;SDS011;8185;57.818;15.224;2023-03-23T10:48:08;2.70;;;1.10;;
16159;SDS011;8185;57.818;15.224;2023-03-23T10:50:39;1.33;;;0.60;;
16159;SDS011;8185;57.818;15.224;2023-03-23T10:53:13;4.57;;;0.87;;
16159;SDS011;8185;57.818;15.224;2023-03-23T10:55:43;2.93;;;0.67;;
16159;SDS011;8185;57.818;15.224;2023-03-23T10:58:13;2.33;;;0.60;;
16159;SDS011;8185;57.818;15.224;2023-03-23T11:00:50;2.13;;;0.80;;
16159;SDS011;8185;57.818;15.224;2023-03-23T11:03:23;2.70;;;0.50;;
16159;SDS011;8185;57.818;15.224;2023-03-23T11:05:55;1.70;;;0.60;;
16159;SDS011;8185;57.818;15.224;2023-03-23T11:08:25;1.97;;;0.73;;
16159;SDS011;8185;57.818;15.224;2023-03-23T11:10:57;2.77;;;0.70;;
16159;SDS011;8185;57.818;15.224;2023-03-23T11:13:28;1.90;;;0.70;;
16159;SDS011;8185;57.818;15.224;2023-03-23T11:15:57;3.93;;;1.10;;
16159;SDS011;8185;57.818;15.224;2023-03-23T11:18:26;2.77;;;0.60;;
16159;SDS011;8185;57.818;15.224;2023-03-23T11:21:03;2.43;;;0.70;;
16159;SDS011;8185;57.818;15.224;2023-03-23T11:23:34;2.77;;;0.93;;
16159;SDS011;8185;57.818;15.224;2023-03-23T11:26:08;3.10;;;0.90;;
16159;SDS011;8185;57.818;15.224;2023-03-23T11:28:42;2.60;;;1.00;;
16159;SDS011;8185;57.818;15.224;2023-03-23T11:31:12;2.77;;;0.80;;
16159;SDS011;8185;57.818;15.224;2023-03-23T11:33:45;5.40;;;0.70;;
16159;SDS011;8185;57.818;15.224;2023-03-23T11:36:18;2.37;;;0.73;;
16159;SDS011;8185;57.818;15.224;2023-03-23T11:38:51;1.70;;;0.80;;
16159;SDS011;8185;57.818;15.224;2023-03-23T11:41:22;2.83;;;0.70;;
16159;SDS011;8185;57.818;15.224;2023-03-23T11:43:51;2.40;;;0.87;;
16159;SDS011;8185;57.818;15.224;2023-03-23T11:46:22;1.60;;;0.67;;
16159;SDS011;8185;57.818;15.224;2023-03-23T11:48:58;3.87;;;0.80;;
16159;SDS011;8185;57.818;15.224;2023-03-23T11:51:30;1.77;;;0.60;;
16159;SDS011;8185;57.818;15.224;2023-03-23T11:54:04;3.73;;;1.00;;
16159;SDS011;8185;57.818;15.224;2023-03-23T11:56:39;1.47;;;0.60;;
16159;SDS011;8185;57.818;15.224;2023-03-23T11:59:10;1.93;;;0.83;;
16159;SDS011;8185;57.818;15.224;2023-03-23T12:01:43;3.10;;;0.90;;
16159;SDS011;8185;57.818;15.224;2023-03-23T12:07:19;1.90;;;0.87;;
16159;SDS011;8185;57.818;15.224;2023-03-23T12:10:09;3.07;;;1.20;;
16159;SDS011;8185;57.818;15.224;2023-03-23T12:12:51;2.23;;;0.90;;
16159;SDS011;8185;57.818;15.224;2023-03-23T12:15:30;1.53;;;0.70;;
16159;SDS011;8185;57.818;15.224;2023-03-23T12:18:06;3.93;;;1.07;;
16159;SDS011;8185;57.818;15.224;2023-03-23T12:20:45;1.23;;;0.90;;
16159;SDS011;8185;57.818;15.224;2023-03-23T12:23:22;2.53;;;0.80;;
16159;SDS011;8185;57.818;15.224;2023-03-23T12:26:03;1.43;;;0.80;;
16159;SDS011;8185;57.818;15.224;2023-03-23T12:28:47;3.13;;;0.70;;
16159;SDS011;8185;57.818;15.224;2023-03-23T12:31:39;6.03;;;1.20;;
16159;SDS011;8185;57.818;15.224;2023-03-23T12:34:16;3.37;;;0.97;;
16159;SDS011;8185;57.818;15.224;2023-03-23T12:36:59;2.60;;;1.00;;
16159;SDS011;8185;57.818;15.224;2023-03-23T12:39:49;3.23;;;0.90;;
16159;SDS011;8185;57.818;15.224;2023-03-23T12:42:29;2.20;;;0.70;;
16159;SDS011;8185;57.818;15.224;2023-03-23T12:45:04;0.97;;;0.50;;
16159;SDS011;8185;57.818;15.224;2023-03-23T12:47:45;2.67;;;0.60;;
16159;SDS011;8185;57.818;15.224;2023-03-23T12:50:14;0.70;;;0.47;;
16159;SDS011;8185;57.818;15.224;2023-03-23T12:52:47;0.80;;;0.47;;
16159;SDS011;8185;57.818;15.224;2023-03-23T12:55:20;3.50;;;0.50;;
16159;SDS011;8185;57.818;15.224;2023-03-23T12:57:53;2.03;;;0.43;;
16159;SDS011;8185;57.818;15.224;2023-03-23T13:00:25;0.67;;;0.43;;
16159;SDS011;8185;57.818;15.224;2023-03-23T13:02:57;1.83;;;0.80;;
16159;SDS011;8185;57.818;15.224;2023-03-23T13:05:36;0.70;;;0.40;;
16159;SDS011;8185;57.818;15.224;2023-03-23T13:08:12;0.50;;;0.47;;
16159;SDS011;8185;57.818;15.224;2023-03-23T13:10:44;0.60;;;0.50;;
16159;SDS011;8185;57.818;15.224;2023-03-23T13:13:17;1.53;;;0.40;;
16159;SDS011;8185;57.818;15.224;2023-03-23T13:15:49;0.80;;;0.50;;
16159;SDS011;8185;57.818;15.224;2023-03-23T13:18:25;0.80;;;0.40;;
16159;SDS011;8185;57.818;15.224;2023-03-23T13:21:04;1.73;;;0.80;;
16159;SDS011;8185;57.818;15.224;2023-03-23T13:23:37;1.40;;;0.40;;
16159;SDS011;8185;57.818;15.224;2023-03-23T13:26:07;0.43;;;0.30;;
16159;SDS011;8185;57.818;15.224;2023-03-23T13:28:48;0.60;;;0.40;;
16159;SDS011;8185;57.818;15.224;2023-03-23T13:31:21;1.17;;;0.50;;
16159;SDS011;8185;57.818;15.224;2023-03-23T13:33:57;0.80;;;0.40;;
16159;SDS011;8185;57.818;15.224;2023-03-23T13:36:29;0.53;;;0.30;;
16159;SDS011;8185;57.818;15.224;2023-03-23T13:38:59;0.70;;;0.50;;
16159;SDS011;8185;57.818;15.224;2023-03-23T13:41:29;0.50;;;0.30;;
16159;SDS011;8185;57.818;15.224;2023-03-23T13:44:16;0.50;;;0.30;;
16159;SDS011;8185;57.818;15.224;2023-03-23T13:47:05;1.20;;;0.60;;
16159;SDS011;8185;57.818;15.224;2023-03-23T13:49:44;1.33;;;0.50;;
16159;SDS011;8185;57.818;15.224;2023-03-23T13:52:15;0.97;;;0.47;;
16159;SDS011;8185;57.818;15.224;2023-03-23T13:54:45;0.30;;;0.30;;
16159;SDS011;8185;57.818;15.224;2023-03-23T13:57:34;2.00;;;0.40;;
16159;SDS011;8185;57.818;15.224;2023-03-23T14:00:25;1.57;;;0.50;;
16159;SDS011;8185;57.818;15.224;2023-03-23T14:03:00;0.40;;;0.30;;
16159;SDS011;8185;57.818;15.224;2023-03-23T14:05:33;0.50;;;0.30;;
16159;SDS011;8185;57.818;15.224;2023-03-23T14:08:02;2.53;;;0.30;;
16159;SDS011;8185;57.818;15.224;2023-03-23T14:10:39;0.37;;;0.30;;
16159;SDS011;8185;57.818;15.224;2023-03-23T14:13:14;1.13;;;0.40;;
16159;SDS011;8185;57.818;15.224;2023-03-23T14:15:53;0.50;;;0.40;;
16159;SDS011;8185;57.818;15.224;2023-03-23T14:18:28;0.67;;;0.30;;
16159;SDS011;8185;57.818;15.224;2023-03-23T14:20:58;0.40;;;0.30;;
16159;SDS011;8185;57.818;15.224;2023-03-23T14:23:27;1.43;;;0.50;;
16159;SDS011;8185;57.818;15.224;2023-03-23T14:25:58;0.90;;;0.40;;
16159;SDS011;8185;57.818;15.224;2023-03-23T14:28:32;1.70;;;0.40;;
16159;SDS011;8185;57.818;15.224;2023-03-23T14:31:08;0.70;;;0.50;;
16159;SDS011;8185;57.818;15.224;2023-03-23T14:33:44;1.23;;;0.60;;
16159;SDS011;8185;57.818;15.224;2023-03-23T14:36:13;1.27;;;0.50;;
16159;SDS011;8185;57.818;15.224;2023-03-23T14:38:40;0.87;;;0.60;;
16159;SDS011;8185;57.818;15.224;2023-03-23T14:41:10;0.73;;;0.70;;
16159;SDS011;8185;57.818;15.224;2023-03-23T14:43:39;1.53;;;0.70;;
16159;SDS011;8185;57.818;15.224;2023-03-23T14:46:08;2.90;;;1.27;;
16159;SDS011;8185;57.818;15.224;2023-03-23T14:48:38;1.00;;;0.63;;
16159;SDS011;8185;57.818;15.224;2023-03-23T14:51:07;1.23;;;0.80;;
16159;SDS011;8185;57.818;15.224;2023-03-23T14:53:44;2.13;;;0.50;;
16159;SDS011;8185;57.818;15.224;2023-03-23T14:56:13;0.50;;;0.30;;
16159;SDS011;8185;57.818;15.224;2023-03-23T14:58:43;1.23;;;0.67;;
16159;SDS011;8185;57.818;15.224;2023-03-23T15:01:13;0.40;;;0.40;;
16159;SDS011;8185;57.818;15.224;2023-03-23T15:03:46;0.73;;;0.50;;
16159;SDS011;8185;57.818;15.224;2023-03-23T15:06:19;0.67;;;0.30;;
16159;SDS011;8185;57.818;15.224;2023-03-23T15:08:49;2.80;;;2.60;;
16159;SDS011;8185;57.818;15.224;2023-03-23T15:11:23;0.93;;;0.60;;
16159;SDS011;8185;57.818;15.224;2023-03-23T15:13:55;1.00;;;0.60;;
16159;SDS011;8185;57.818;15.224;2023-03-23T15:16:30;2.30;;;2.10;;
16159;SDS011;8185;57.818;15.224;2023-03-23T15:18:59;2.30;;;2.10;;
16159;SDS011;8185;57.818;15.224;2023-03-23T15:21:29;4.03;;;2.97;;